createdAt,value
2023-04-26T00:00:31.357Z,98903.19
2023-04-26T00:03:00.644Z,98901.41
2023-04-26T00:05:29.421Z,98902.50
2023-04-26T00:07:56.019Z,98903.81
2023-04-26T00:10:22.732Z,98910.78
2023-04-26T00:12:49.392Z,98916.38
2023-04-26T00:15:15.996Z,98914.09
2023-04-26T00:17:43.908Z,98916.38
2023-04-26T00:20:13.351Z,98907.16
2023-04-26T00:22:40.528Z,98921.22
2023-04-26T00:25:07.668Z,98919.06
2023-04-26T00:27:34.280Z,98912.16
2023-04-26T00:30:00.863Z,98914.47
2023-04-26T00:32:27.573Z,98913.44
2023-04-26T00:34:54.151Z,98905.03
2023-04-26T00:37:21.340Z,98904.69
2023-04-26T00:39:47.962Z,98918.81
2023-04-26T00:42:14.535Z,98915.53
2023-04-26T00:44:41.108Z,98910.06
2023-04-26T00:47:07.699Z,98912.06
2023-04-26T00:49:37.961Z,98911.94
2023-04-26T00:52:04.868Z,98910.56
2023-04-26T00:54:31.495Z,98914.38
2023-04-26T00:56:58.460Z,98914.47
2023-04-26T00:59:26.916Z,98904.69
2023-04-26T01:01:53.538Z,98911.34
2023-04-26T01:04:20.356Z,98909.16
2023-04-26T01:06:47.694Z,98908.53
2023-04-26T01:09:15.376Z,98906.84
2023-04-26T01:11:43.639Z,98906.09
2023-04-26T01:14:11.259Z,98906.56
2023-04-26T01:16:40.561Z,98895.38
2023-04-26T01:19:12.687Z,98908.69
2023-04-26T01:21:41.071Z,98902.44
2023-04-26T01:24:10.858Z,98899.69
2023-04-26T01:26:44.096Z,98896.97
2023-04-26T01:29:22.018Z,98902.50
2023-04-26T01:31:48.999Z,98898.03
2023-04-26T01:34:16.338Z,98890.47
2023-04-26T01:36:43.012Z,98893.28
2023-04-26T01:39:10.215Z,98895.84
2023-04-26T01:41:36.907Z,98890.88
2023-04-26T01:44:04.018Z,98899.06
2023-04-26T01:46:30.722Z,98893.06
2023-04-26T01:48:57.433Z,98895.59
2023-04-26T01:51:24.128Z,98893.59
2023-04-26T01:53:51.053Z,98894.81
2023-04-26T01:56:18.431Z,98897.78
2023-04-26T01:58:45.344Z,98900.75
2023-04-26T02:01:12.309Z,98899.75
2023-04-26T02:03:39.168Z,98899.69
2023-04-26T02:06:05.969Z,98894.13
2023-04-26T02:08:32.601Z,98902.59
2023-04-26T02:10:59.358Z,98904.25
2023-04-26T02:13:26.195Z,98902.72
2023-04-26T02:15:52.944Z,98912.38
2023-04-26T02:18:21.856Z,98907.16
2023-04-26T02:20:48.773Z,98911.09
2023-04-26T02:23:15.744Z,98910.50
2023-04-26T02:25:45.844Z,98913.69
2023-04-26T02:28:12.460Z,98911.03
2023-04-26T02:30:39.090Z,98913.25
2023-04-26T02:33:05.708Z,98910.41
2023-04-26T02:35:32.430Z,98915.13
2023-04-26T02:37:58.998Z,98916.38
2023-04-26T02:40:25.677Z,98915.38
2023-04-26T02:42:52.271Z,98912.66
2023-04-26T02:45:19.029Z,98920.34
2023-04-26T02:47:45.704Z,98922.34
2023-04-26T02:50:12.356Z,98920.13
2023-04-26T02:52:39.124Z,98917.84
2023-04-26T02:55:07.072Z,98915.31
2023-04-26T02:57:33.775Z,98913.06
2023-04-26T03:00:01.131Z,98912.81
2023-04-26T03:02:30.783Z,98905.53
2023-04-26T03:04:57.753Z,98906.03
2023-04-26T03:07:24.413Z,98913.16
2023-04-26T03:09:53.370Z,98905.03
2023-04-26T03:12:19.998Z,98907.66
2023-04-26T03:14:46.551Z,98911.31
2023-04-26T03:17:13.300Z,98904.00
2023-04-26T03:19:39.924Z,98901.56
2023-04-26T03:22:06.572Z,98901.00
2023-04-26T03:24:33.168Z,98898.69
2023-04-26T03:27:00.208Z,98900.22
2023-04-26T03:29:26.960Z,98905.00
2023-04-26T03:31:53.782Z,98907.44
2023-04-26T03:34:20.763Z,98907.31
2023-04-26T03:36:47.375Z,98903.78
2023-04-26T03:39:14.171Z,98902.88
2023-04-26T03:41:40.958Z,98901.03
2023-04-26T03:44:07.549Z,98907.88
2023-04-26T03:46:34.469Z,98892.75
2023-04-26T03:49:01.045Z,98903.38
2023-04-26T03:51:28.715Z,98898.88
2023-04-26T03:53:55.747Z,98898.94
2023-04-26T03:56:22.423Z,98896.03
2023-04-26T03:58:49.197Z,98892.97
2023-04-26T04:01:15.913Z,98898.34
2023-04-26T04:03:42.813Z,98901.38
2023-04-26T04:06:09.584Z,98898.34
2023-04-26T04:08:36.674Z,98903.06
2023-04-26T04:11:03.288Z,98905.81
2023-04-26T04:13:30.003Z,98906.63
2023-04-26T04:15:56.603Z,98906.88
2023-04-26T04:18:23.224Z,98903.41
2023-04-26T04:20:49.902Z,98904.41
2023-04-26T04:23:17.015Z,98907.31
2023-04-26T04:25:45.374Z,98906.84
2023-04-26T04:28:11.958Z,98904.94
2023-04-26T04:30:38.597Z,98910.91
2023-04-26T04:33:05.445Z,98917.22
2023-04-26T04:35:34.042Z,98912.44
2023-04-26T04:38:02.936Z,98915.59
2023-04-26T04:40:30.174Z,98919.44
2023-04-26T04:42:56.759Z,98924.47
2023-04-26T04:45:23.607Z,98934.84
2023-04-26T04:47:50.648Z,98941.47
2023-04-26T04:50:20.394Z,98938.16
2023-04-26T04:52:46.982Z,98938.41
2023-04-26T04:55:13.618Z,98937.19
2023-04-26T04:57:42.768Z,98943.28
2023-04-26T05:00:12.419Z,98943.75
2023-04-26T05:02:39.184Z,98945.38
2023-04-26T05:05:06.840Z,98952.13
2023-04-26T05:07:34.328Z,98946.31
2023-04-26T05:10:01.206Z,98954.75
2023-04-26T05:12:27.901Z,98954.16
2023-04-26T05:14:54.590Z,98953.59
2023-04-26T05:17:21.290Z,98955.09
2023-04-26T05:19:48.182Z,98953.50
2023-04-26T05:22:18.245Z,98952.41
2023-04-26T05:24:48.969Z,98957.97
2023-04-26T05:27:15.860Z,98960.94
2023-04-26T05:29:42.597Z,98970.84
2023-04-26T05:32:10.408Z,98961.50
2023-04-26T05:34:38.450Z,98965.28
2023-04-26T05:37:05.101Z,98972.13
2023-04-26T05:39:31.838Z,98970.09
2023-04-26T05:41:58.453Z,98971.56
2023-04-26T05:44:25.287Z,98966.91
2023-04-26T05:46:51.887Z,98974.25
2023-04-26T05:49:18.482Z,98971.88
2023-04-26T05:51:45.177Z,98977.28
2023-04-26T05:54:11.899Z,98983.91
2023-04-26T05:56:38.456Z,98979.81
2023-04-26T05:59:05.607Z,98983.13
2023-04-26T06:01:32.234Z,98981.09
2023-04-26T06:04:00.768Z,99002.66
2023-04-26T06:06:28.245Z,99003.56
2023-04-26T06:08:55.372Z,99004.78
2023-04-26T06:11:22.174Z,99011.63
2023-04-26T06:13:48.791Z,99015.38
2023-04-26T06:16:16.285Z,99010.72
2023-04-26T06:18:43.587Z,99015.50
2023-04-26T06:21:10.217Z,99014.63
2023-04-26T06:23:36.800Z,99022.31
2023-04-26T06:26:03.463Z,99015.75
2023-04-26T06:28:30.088Z,99006.88
2023-04-26T06:30:56.704Z,99015.50
2023-04-26T06:33:23.319Z,99015.69
2023-04-26T06:35:49.908Z,99017.81
2023-04-26T06:38:16.477Z,99023.97
2023-04-26T06:40:43.080Z,99027.47
2023-04-26T06:43:09.667Z,99019.38
2023-04-26T06:45:36.844Z,99023.69
2023-04-26T06:48:04.869Z,99029.84
2023-04-26T06:50:31.697Z,99033.97
2023-04-26T06:52:58.373Z,99027.06
2023-04-26T06:55:25.194Z,99027.34
2023-04-26T06:57:51.792Z,99030.47
2023-04-26T07:00:18.938Z,99026.13
2023-04-26T07:02:45.895Z,99024.78
2023-04-26T07:05:13.090Z,99032.72
2023-04-26T07:07:39.745Z,99026.00
2023-04-26T07:10:08.149Z,99032.78
2023-04-26T07:12:35.044Z,99031.03
2023-04-26T07:15:01.774Z,99027.69
2023-04-26T07:17:28.400Z,99025.97
2023-04-26T07:19:56.173Z,99028.31
2023-04-26T07:22:23.471Z,99039.22
2023-04-26T07:24:50.134Z,99030.00
2023-04-26T07:27:17.003Z,99029.50
2023-04-26T07:29:43.740Z,99030.09
2023-04-26T07:32:11.074Z,99023.94
2023-04-26T07:34:37.984Z,99028.28
2023-04-26T07:37:04.654Z,99021.22
2023-04-26T07:39:31.283Z,99028.75
2023-04-26T07:41:57.903Z,99026.34
2023-04-26T07:44:24.518Z,99029.34
2023-04-26T07:46:51.493Z,99026.09
2023-04-26T07:49:18.072Z,99026.63
2023-04-26T07:51:45.633Z,99014.53
2023-04-26T07:54:12.287Z,99020.28
2023-04-26T07:56:39.049Z,99016.75
2023-04-26T07:59:05.703Z,99026.22
2023-04-26T08:01:32.326Z,99018.94
2023-04-26T08:03:59.358Z,99021.56
2023-04-26T08:06:29.176Z,99020.41
2023-04-26T08:08:55.746Z,99019.69
2023-04-26T08:11:22.537Z,99020.09
2023-04-26T08:13:49.180Z,99018.09
2023-04-26T08:16:15.886Z,99018.88
2023-04-26T08:18:44.089Z,99020.44
2023-04-26T08:21:12.743Z,99014.28
2023-04-26T08:23:39.471Z,99021.91
2023-04-26T08:26:06.400Z,99010.94
2023-04-26T08:28:35.581Z,99021.84
2023-04-26T08:31:02.199Z,99018.31
2023-04-26T08:33:28.788Z,99019.03
2023-04-26T08:35:55.466Z,99028.19
2023-04-26T08:38:22.753Z,99015.78
2023-04-26T08:40:51.196Z,99022.13
2023-04-26T08:43:17.815Z,99019.16
2023-04-26T08:45:47.021Z,99019.03
2023-04-26T08:48:15.923Z,99022.94
2023-04-26T08:50:45.964Z,99021.72
2023-04-26T08:53:17.700Z,99017.22
2023-04-26T08:55:49.451Z,99011.06
2023-04-26T08:58:17.990Z,99021.44
2023-04-26T09:00:45.986Z,99019.78
2023-04-26T09:03:12.986Z,99007.53
2023-04-26T09:05:43.975Z,99017.22
2023-04-26T09:08:18.137Z,99007.09
2023-04-26T09:10:45.191Z,98998.25
2023-04-26T09:13:12.318Z,99001.31
2023-04-26T09:15:39.757Z,99008.81
2023-04-26T09:18:23.187Z,99009.44
2023-04-26T09:21:04.337Z,99008.56
2023-04-26T09:23:31.672Z,99001.78
2023-04-26T09:26:20.344Z,98999.25
2023-04-26T09:28:47.454Z,99005.34
2023-04-26T09:31:39.464Z,99006.56
2023-04-26T09:34:06.511Z,99006.91
2023-04-26T09:36:33.109Z,99008.25
2023-04-26T09:38:59.974Z,99001.53
2023-04-26T09:41:44.105Z,99004.25
2023-04-26T09:44:23.000Z,98995.72
2023-04-26T09:47:01.665Z,98992.63
2023-04-26T09:49:32.344Z,98995.09
2023-04-26T09:52:06.367Z,98997.00
2023-04-26T09:54:41.454Z,98996.56
2023-04-26T09:57:08.261Z,98993.75
2023-04-26T09:59:51.707Z,98995.22
2023-04-26T10:02:23.784Z,98991.16
2023-04-26T10:04:56.970Z,98994.31
2023-04-26T10:07:25.946Z,98994.16
2023-04-26T10:09:54.431Z,98990.22
2023-04-26T10:12:21.241Z,98995.41
2023-04-26T10:14:48.677Z,98985.44
2023-04-26T10:17:15.360Z,98981.44
2023-04-26T10:19:46.639Z,98977.00
2023-04-26T10:22:25.821Z,98980.44
2023-04-26T10:24:54.843Z,98966.97
2023-04-26T10:27:43.438Z,98974.34
2023-04-26T10:30:13.773Z,98971.31
2023-04-26T10:32:52.863Z,98972.47
2023-04-26T10:35:20.048Z,98971.72
2023-04-26T10:38:09.208Z,98967.78
2023-04-26T10:40:39.068Z,98968.19
2023-04-26T10:43:09.746Z,98958.59
2023-04-26T10:45:38.113Z,98953.38
2023-04-26T10:48:37.917Z,98951.47
2023-04-26T10:51:05.362Z,98956.97
2023-04-26T10:53:53.788Z,98952.38
2023-04-26T10:56:23.944Z,98958.75
2023-04-26T10:59:22.464Z,98955.72
2023-04-26T11:01:54.882Z,98953.41
2023-04-26T11:04:22.240Z,98932.50
2023-04-26T11:06:57.737Z,98937.06
2023-04-26T11:09:42.255Z,98931.94
2023-04-26T11:12:14.408Z,98937.66
2023-04-26T11:14:46.071Z,98942.25
2023-04-26T11:17:13.018Z,98931.28
2023-04-26T11:19:42.495Z,98931.91
2023-04-26T11:22:09.365Z,98939.16
2023-04-26T11:24:37.012Z,98937.97
2023-04-26T11:27:11.243Z,98933.94
2023-04-26T11:29:38.702Z,98940.94
2023-04-26T11:32:05.600Z,98934.75
2023-04-26T11:34:34.184Z,98927.13
2023-04-26T11:37:03.723Z,98931.09
2023-04-26T11:39:34.976Z,98924.38
2023-04-26T11:42:09.705Z,98930.53
2023-04-26T11:44:37.908Z,98930.16
2023-04-26T11:47:06.861Z,98934.38
2023-04-26T11:49:42.898Z,98928.56
2023-04-26T11:52:10.024Z,98931.44
2023-04-26T11:54:37.892Z,98919.59
2023-04-26T11:57:18.424Z,98917.75
2023-04-26T11:59:45.883Z,98913.63
2023-04-26T12:02:12.707Z,98912.03
2023-04-26T12:04:41.177Z,98915.13
2023-04-26T12:07:08.447Z,98917.13
2023-04-26T12:09:35.244Z,98919.41
2023-04-26T12:12:07.546Z,98914.84
2023-04-26T12:14:37.411Z,98908.25
2023-04-26T12:17:06.334Z,98912.34
2023-04-26T12:19:34.151Z,98910.69
2023-04-26T12:22:03.250Z,98907.38
2023-04-26T12:24:34.195Z,98912.50
2023-04-26T12:27:02.819Z,98905.00
2023-04-26T12:29:31.726Z,98911.81
2023-04-26T12:32:02.043Z,98912.88
2023-04-26T12:34:28.869Z,98908.44
2023-04-26T12:36:55.641Z,98911.94
2023-04-26T12:39:22.266Z,98906.78
2023-04-26T12:41:49.287Z,98915.97
2023-04-26T12:44:16.415Z,98905.44
2023-04-26T12:46:43.324Z,98906.50
2023-04-26T12:49:10.092Z,98902.78
2023-04-26T12:51:36.712Z,98903.09
2023-04-26T12:54:03.473Z,98906.13
2023-04-26T12:56:30.358Z,98896.56
2023-04-26T12:58:57.084Z,98902.53
2023-04-26T13:01:23.781Z,98903.38
2023-04-26T13:03:50.811Z,98907.28
2023-04-26T13:06:18.065Z,98901.63
2023-04-26T13:08:44.691Z,98903.00
2023-04-26T13:11:11.278Z,98903.13
2023-04-26T13:13:43.819Z,98909.97
2023-04-26T13:16:13.017Z,98907.41
2023-04-26T13:18:41.303Z,98901.59
2023-04-26T13:21:08.027Z,98908.53
2023-04-26T13:23:34.685Z,98908.56
2023-04-26T13:26:01.538Z,98896.59
2023-04-26T13:28:28.246Z,98900.50
2023-04-26T13:30:55.805Z,98912.97
2023-04-26T13:33:22.598Z,98915.91
2023-04-26T13:35:49.196Z,98909.91
2023-04-26T13:38:18.700Z,98918.84
2023-04-26T13:40:45.629Z,98914.78
2023-04-26T13:43:12.312Z,98924.50
2023-04-26T13:45:38.980Z,98917.47
2023-04-26T13:48:05.958Z,98919.94
2023-04-26T13:50:32.732Z,98917.44
2023-04-26T13:52:59.883Z,98916.47
2023-04-26T13:55:26.703Z,98911.47
2023-04-26T13:57:53.372Z,98907.41
2023-04-26T14:00:20.658Z,98910.91
2023-04-26T14:02:47.457Z,98897.53
2023-04-26T14:05:14.301Z,98901.22
2023-04-26T14:07:41.505Z,98903.47
2023-04-26T14:10:08.839Z,98902.28
2023-04-26T14:12:35.477Z,98898.81
2023-04-26T14:15:04.105Z,98889.22
2023-04-26T14:17:32.217Z,98886.66
2023-04-26T14:19:58.852Z,98887.31
2023-04-26T14:22:27.097Z,98877.41
2023-04-26T14:24:53.688Z,98869.47
2023-04-26T14:27:20.353Z,98863.97
2023-04-26T14:29:46.944Z,98868.94
2023-04-26T14:32:13.619Z,98880.72
2023-04-26T14:34:40.372Z,98876.72
2023-04-26T14:37:07.449Z,98873.22
2023-04-26T14:39:34.310Z,98876.03
2023-04-26T14:42:01.561Z,98863.19
2023-04-26T14:44:28.127Z,98861.41
2023-04-26T14:46:54.810Z,98864.38
2023-04-26T14:49:21.426Z,98858.97
2023-04-26T14:51:48.011Z,98859.03
2023-04-26T14:54:15.443Z,98853.59
2023-04-26T14:56:42.137Z,98862.72
2023-04-26T14:59:08.706Z,98857.22
2023-04-26T15:01:35.476Z,98858.50
2023-04-26T15:04:02.402Z,98851.84
2023-04-26T15:06:30.667Z,98849.72
2023-04-26T15:08:57.353Z,98846.69
2023-04-26T15:11:23.984Z,98854.44
2023-04-26T15:13:50.562Z,98856.47
2023-04-26T15:16:17.448Z,98856.38
2023-04-26T15:18:44.126Z,98855.81
2023-04-26T15:21:19.495Z,98844.66
2023-04-26T15:23:46.482Z,98851.59
2023-04-26T15:26:15.371Z,98851.63
2023-04-26T15:28:42.044Z,98846.63
2023-04-26T15:31:10.853Z,98849.44
2023-04-26T15:33:37.749Z,98845.03
2023-04-26T15:36:05.168Z,98846.69
2023-04-26T15:38:34.654Z,98846.09
2023-04-26T15:41:01.553Z,98844.00
2023-04-26T15:43:28.335Z,98845.84
2023-04-26T15:45:55.191Z,98847.16
2023-04-26T15:48:21.855Z,98844.34
2023-04-26T15:50:48.454Z,98856.66
2023-04-26T15:53:15.047Z,98848.53
2023-04-26T15:55:41.754Z,98850.78
2023-04-26T15:58:08.331Z,98863.56
2023-04-26T16:00:36.247Z,98852.06
2023-04-26T16:03:03.003Z,98856.63
2023-04-26T16:05:31.435Z,98848.09
2023-04-26T16:07:59.413Z,98846.31
2023-04-26T16:10:26.142Z,98844.22
2023-04-26T16:12:52.797Z,98836.75
2023-04-26T16:15:19.706Z,98835.84
2023-04-26T16:17:46.444Z,98842.13
2023-04-26T16:20:13.153Z,98838.84
2023-04-26T16:22:39.793Z,98832.09
2023-04-26T16:25:06.763Z,98838.84
2023-04-26T16:27:33.544Z,98828.34
2023-04-26T16:30:00.144Z,98838.22
2023-04-26T16:32:26.836Z,98827.88
2023-04-26T16:34:53.455Z,98830.16
2023-04-26T16:37:20.061Z,98831.16
2023-04-26T16:39:46.888Z,98828.34
2023-04-26T16:42:13.541Z,98826.53
2023-04-26T16:44:40.673Z,98825.19
2023-04-26T16:47:07.787Z,98834.78
2023-04-26T16:49:34.449Z,98823.72
2023-04-26T16:52:01.641Z,98834.34
2023-04-26T16:54:28.537Z,98826.59
2023-04-26T16:56:55.993Z,98840.19
2023-04-26T16:59:22.593Z,98842.44
2023-04-26T17:01:49.275Z,98848.00
2023-04-26T17:04:16.296Z,98844.22
2023-04-26T17:06:44.998Z,98852.16
2023-04-26T17:09:12.913Z,98857.84
2023-04-26T17:11:43.414Z,98859.50
2023-04-26T17:14:10.516Z,98852.59
2023-04-26T17:16:37.355Z,98844.84
2023-04-26T17:19:04.077Z,98844.50
2023-04-26T17:21:30.666Z,98847.03
2023-04-26T17:23:59.500Z,98852.06
2023-04-26T17:26:26.349Z,98859.44
2023-04-26T17:28:53.691Z,98855.97
2023-04-26T17:31:20.340Z,98853.06
2023-04-26T17:33:46.970Z,98857.00
2023-04-26T17:36:14.627Z,98857.19
2023-04-26T17:38:41.310Z,98857.19
2023-04-26T17:41:08.026Z,98859.38
2023-04-26T17:43:34.590Z,98861.81
2023-04-26T17:46:01.455Z,98858.66
2023-04-26T17:48:28.968Z,98861.13
2023-04-26T17:50:56.163Z,98861.56
2023-04-26T17:53:22.878Z,98864.28
2023-04-26T17:55:49.790Z,98862.81
2023-04-26T17:58:16.513Z,98865.88
2023-04-26T18:00:43.141Z,98870.81
2023-04-26T18:03:11.831Z,98867.56
2023-04-26T18:05:38.702Z,98868.94
2023-04-26T18:08:05.359Z,98863.47
2023-04-26T18:10:32.091Z,98856.59
2023-04-26T18:12:58.750Z,98861.72
2023-04-26T18:15:25.635Z,98871.75
2023-04-26T18:17:53.239Z,98875.84
2023-04-26T18:20:19.882Z,98878.88
2023-04-26T18:22:49.271Z,98883.19
2023-04-26T18:25:15.862Z,98882.78
2023-04-26T18:27:42.480Z,98886.63
2023-04-26T18:30:10.135Z,98894.66
2023-04-26T18:32:36.712Z,98888.25
2023-04-26T18:35:06.098Z,98882.28
2023-04-26T18:37:32.918Z,98883.09
2023-04-26T18:39:59.568Z,98888.06
2023-04-26T18:42:26.250Z,98893.75
2023-04-26T18:44:53.362Z,98896.41
2023-04-26T18:47:20.435Z,98900.00
2023-04-26T18:49:47.212Z,98896.75
2023-04-26T18:52:14.027Z,98896.06
2023-04-26T18:54:41.037Z,98896.97
2023-04-26T18:57:07.626Z,98892.84
2023-04-26T18:59:34.319Z,98900.88
2023-04-26T19:02:01.528Z,98897.91
2023-04-26T19:04:28.483Z,98904.22
2023-04-26T19:06:55.366Z,98912.22
2023-04-26T19:09:22.036Z,98911.16
2023-04-26T19:11:48.952Z,98924.06
2023-04-26T19:14:15.662Z,98918.63
2023-04-26T19:16:42.310Z,98921.72
2023-04-26T19:19:09.012Z,98928.31
2023-04-26T19:21:35.788Z,98927.00
2023-04-26T19:24:02.501Z,98930.44
2023-04-26T19:26:29.078Z,98935.69
2023-04-26T19:28:56.068Z,98932.16
2023-04-26T19:31:22.937Z,98933.06
2023-04-26T19:33:49.615Z,98934.72
2023-04-26T19:36:16.308Z,98939.63
2023-04-26T19:38:42.891Z,98931.69
2023-04-26T19:41:09.557Z,98935.09
2023-04-26T19:43:36.156Z,98943.13
2023-04-26T19:46:13.766Z,98940.69
2023-04-26T19:48:41.098Z,98944.72
2023-04-26T19:51:07.774Z,98938.47
2023-04-26T19:53:35.196Z,98940.56
2023-04-26T19:56:01.824Z,98939.03
2023-04-26T19:58:28.440Z,98934.44
2023-04-26T20:00:55.081Z,98941.91
2023-04-26T20:03:21.818Z,98943.00
2023-04-26T20:05:50.980Z,98941.38
2023-04-26T20:08:17.757Z,98949.34
2023-04-26T20:10:44.555Z,98952.88
2023-04-26T20:13:11.430Z,98942.13
2023-04-26T20:15:48.024Z,98954.06
2023-04-26T20:18:14.617Z,98954.06
2023-04-26T20:20:41.292Z,98952.72
2023-04-26T20:23:08.089Z,98950.97
2023-04-26T20:25:34.842Z,98955.75
2023-04-26T20:28:03.499Z,98962.94
2023-04-26T20:30:33.418Z,98965.59
2023-04-26T20:33:00.499Z,98960.81
2023-04-26T20:35:27.149Z,98958.94
2023-04-26T20:37:54.053Z,98962.19
2023-04-26T20:40:21.950Z,98960.81
2023-04-26T20:42:48.584Z,98960.16
2023-04-26T20:45:16.429Z,98965.91
2023-04-26T20:47:43.370Z,98955.50
2023-04-26T20:50:10.898Z,98962.38
2023-04-26T20:52:37.501Z,98964.19
2023-04-26T20:55:04.706Z,98959.22
2023-04-26T20:57:31.367Z,98958.66
2023-04-26T20:59:58.054Z,98958.13
2023-04-26T21:02:29.734Z,98958.47
2023-04-26T21:04:56.540Z,98963.00
2023-04-26T21:07:23.260Z,98968.28
2023-04-26T21:09:49.911Z,98972.94
2023-04-26T21:12:17.979Z,98969.22
2023-04-26T21:14:45.890Z,98964.31
2023-04-26T21:17:12.558Z,98975.13
2023-04-26T21:19:39.278Z,98969.44
2023-04-26T21:22:05.927Z,98972.00
2023-04-26T21:24:32.527Z,98969.78
2023-04-26T21:26:59.136Z,98964.59
2023-04-26T21:29:25.718Z,98969.31
2023-04-26T21:31:52.336Z,98969.75
2023-04-26T21:34:19.020Z,98965.63
2023-04-26T21:36:46.928Z,98965.09
2023-04-26T21:39:14.370Z,98966.94
2023-04-26T21:41:41.069Z,98967.59
2023-04-26T21:44:07.709Z,98969.00
2023-04-26T21:46:34.484Z,98970.63
2023-04-26T21:49:01.142Z,98977.06
2023-04-26T21:51:27.793Z,98971.28
2023-04-26T21:53:54.468Z,98974.06
2023-04-26T21:56:21.044Z,98973.34
2023-04-26T21:58:47.816Z,98974.31
2023-04-26T22:01:15.607Z,98977.94
2023-04-26T22:03:42.419Z,98981.63
2023-04-26T22:06:10.016Z,98976.00
2023-04-26T22:08:36.784Z,98977.13
2023-04-26T22:11:03.644Z,98978.50
2023-04-26T22:13:31.214Z,98982.03
2023-04-26T22:15:57.945Z,98986.53
2023-04-26T22:18:25.882Z,98989.78
2023-04-26T22:20:53.356Z,98987.66
2023-04-26T22:23:20.058Z,98988.19
2023-04-26T22:25:46.636Z,98990.28
2023-04-26T22:28:13.237Z,98996.22
2023-04-26T22:30:39.828Z,98995.88
2023-04-26T22:33:07.006Z,98996.72
2023-04-26T22:35:33.780Z,98996.66
2023-04-26T22:38:00.552Z,99003.44
2023-04-26T22:40:27.210Z,99002.19
2023-04-26T22:42:54.370Z,99001.19
2023-04-26T22:45:21.301Z,99008.34
2023-04-26T22:47:47.932Z,99008.56
2023-04-26T22:50:14.784Z,99008.44
2023-04-26T22:52:41.447Z,99019.09
2023-04-26T22:55:08.882Z,99013.72
2023-04-26T22:57:35.595Z,99010.28
2023-04-26T23:00:02.551Z,99011.53
2023-04-26T23:02:29.314Z,99006.53
2023-04-26T23:04:57.021Z,99004.53
2023-04-26T23:07:23.835Z,99010.56
2023-04-26T23:09:50.568Z,99005.00
2023-04-26T23:12:20.337Z,99008.72
2023-04-26T23:14:48.525Z,99013.47
2023-04-26T23:17:15.217Z,99007.84
2023-04-26T23:19:42.608Z,99006.75
2023-04-26T23:22:09.290Z,99005.38
2023-04-26T23:24:36.299Z,99012.22
2023-04-26T23:27:03.621Z,99010.81
2023-04-26T23:29:30.290Z,99001.97
2023-04-26T23:31:56.921Z,99006.41
2023-04-26T23:34:23.674Z,99004.91
2023-04-26T23:36:50.318Z,99010.72
2023-04-26T23:39:17.648Z,99011.97
2023-04-26T23:41:44.320Z,99013.72
2023-04-26T23:44:11.174Z,99005.34
2023-04-26T23:46:37.908Z,99011.78
2023-04-26T23:49:04.509Z,99012.78
2023-04-26T23:51:32.251Z,99012.38
2023-04-26T23:53:58.873Z,99000.28
2023-04-26T23:56:25.484Z,99005.81
2023-04-26T23:58:52.080Z,99009.41
